Time;durP1;ratioP1;P1;durP2;ratioP2;P2;SDS_P1;SDS_P2;PMS_P1;PMS_P2;Temp;Humidity;BMP_temperature;BMP_pressure;BME280_temperature;BME280_humidity;BME280_pressure;Samples;Min_cycle;Max_cycle;Signal;HPM_P1;HPM_P2
2022/10/31 00:01:30;;;;;;;37.17;22.67;;;18.00;99.90;;;;;;5072892;28;20040;-75
2022/10/31 00:03:58;;;;;;;40.17;25.38;;;18.00;99.90;;;;;;5058194;28;20049;-75
2022/10/31 00:06:26;;;;;;;39.58;23.40;;;18.10;99.90;;;;;;5085176;28;20082;-74
2022/10/31 00:08:56;;;;;;;39.72;22.40;;;18.10;99.90;;;;;;5052149;28;20044;-76
2022/10/31 00:11:24;;;;;;;39.22;24.00;;;18.10;99.90;;;;;;5052790;28;20052;-74
2022/10/31 00:13:53;;;;;;;37.70;22.35;;;18.10;99.90;;;;;;5043937;28;20055;-75
2022/10/31 00:16:22;;;;;;;36.42;22.05;;;18.00;99.90;;;;;;5062512;28;20044;-75
2022/10/31 00:18:52;;;;;;;34.83;22.90;;;18.00;99.90;;;;;;5073278;28;20045;-77
2022/10/31 00:21:20;;;;;;;36.60;22.23;;;18.00;99.90;;;;;;5065326;28;20409;-75
2022/10/31 00:23:48;;;;;;;38.40;23.98;;;18.00;99.90;;;;;;5074149;28;20056;-74
2022/10/31 00:26:16;;;;;;;36.38;23.25;;;17.90;99.90;;;;;;5040923;28;20047;-74
2022/10/31 00:28:43;;;;;;;35.92;22.40;;;18.00;99.90;;;;;;5060163;28;20044;-73
2022/10/31 00:31:12;;;;;;;37.15;21.02;;;18.00;99.90;;;;;;5064578;28;20090;-73
2022/10/31 00:33:41;;;;;;;41.72;24.40;;;18.00;99.90;;;;;;5060806;28;20048;-74
2022/10/31 00:36:12;;;;;;;43.03;24.58;;;17.90;99.90;;;;;;5061925;28;20064;-73
2022/10/31 00:38:41;;;;;;;41.60;24.80;;;17.90;99.90;;;;;;5057029;28;20110;-73
2022/10/31 00:41:10;;;;;;;35.70;22.73;;;18.00;99.90;;;;;;5055843;28;20053;-73
2022/10/31 00:43:41;;;;;;;45.40;23.65;;;18.00;99.90;;;;;;5059970;28;20376;-73
2022/10/31 00:46:10;;;;;;;32.00;22.25;;;17.90;99.90;;;;;;5068420;28;20697;-74
2022/10/31 00:48:37;;;;;;;34.55;20.95;;;17.90;99.90;;;;;;5043545;28;20060;-73
2022/10/31 00:51:05;;;;;;;41.63;21.50;;;18.00;99.90;;;;;;5068711;28;20149;-74
2022/10/31 00:53:33;;;;;;;35.65;21.05;;;18.00;99.90;;;;;;5059158;28;20056;-73
2022/10/31 00:56:01;;;;;;;38.55;21.90;;;18.00;99.90;;;;;;5077220;28;20118;-73
2022/10/31 00:58:29;;;;;;;32.65;20.15;;;18.00;99.90;;;;;;5078919;28;20506;-74
2022/10/31 01:00:56;;;;;;;37.60;21.42;;;18.00;99.90;;;;;;5052316;28;20131;-73
2022/10/31 01:03:26;;;;;;;35.22;19.73;;;18.00;99.90;;;;;;5054158;28;20167;-73
2022/10/31 01:05:58;;;;;;;38.88;24.33;;;17.90;99.90;;;;;;5048299;28;20074;-74
2022/10/31 01:08:25;;;;;;;38.30;22.27;;;17.80;99.90;;;;;;5081230;28;20036;-73
2022/10/31 01:11:10;;;;;;;34.85;22.35;;;17.80;99.90;;;;;;5068664;28;20039;-73
2022/10/31 01:13:40;;;;;;;34.78;19.90;;;17.90;99.90;;;;;;5043800;28;20056;-74
2022/10/31 01:16:11;;;;;;;31.73;19.90;;;17.90;99.90;;;;;;5051688;28;20044;-74
2022/10/31 01:18:39;;;;;;;33.65;20.20;;;17.90;99.90;;;;;;5068367;28;20033;-75
2022/10/31 01:21:10;;;;;;;38.88;20.90;;;17.90;99.90;;;;;;5058948;28;20095;-74
2022/10/31 01:23:38;;;;;;;32.72;19.85;;;17.90;99.90;;;;;;5065539;28;20041;-75
2022/10/31 01:26:20;;;;;;;35.40;21.02;;;17.90;99.90;;;;;;5062254;28;20127;-75
2022/10/31 01:28:51;;;;;;;32.33;21.70;;;17.90;99.90;;;;;;5066779;28;20044;-75
2022/10/31 01:31:20;;;;;;;33.88;20.45;;;18.00;99.90;;;;;;5040286;28;20044;-75
2022/10/31 01:33:48;;;;;;;35.67;19.65;;;17.90;99.90;;;;;;5059757;28;20041;-75
2022/10/31 01:36:25;;;;;;;36.28;19.92;;;17.90;99.90;;;;;;5041046;28;20129;-75
2022/10/31 01:38:53;;;;;;;;;;;18.00;99.90;;;;;;5077464;28;20113;-75
2022/10/31 01:41:24;;;;;;;31.75;19.70;;;17.90;99.90;;;;;;5070661;28;19931;-75
2022/10/31 01:43:55;;;;;;;34.03;20.15;;;17.90;99.90;;;;;;5080259;28;20043;-75
2022/10/31 01:46:38;;;;;;;28.25;17.58;;;17.90;99.90;;;;;;5038508;28;20158;-75
2022/10/31 01:49:12;;;;;;;37.15;19.13;;;17.80;99.90;;;;;;5068016;28;20040;-74
2022/10/31 01:51:56;;;;;;;31.08;17.75;;;17.80;99.90;;;;;;5059589;28;20599;-74
2022/10/31 01:54:30;;;;;;;31.60;18.85;;;17.80;99.90;;;;;;5071778;28;20048;-75
2022/10/31 01:56:59;;;;;;;28.30;18.67;;;17.80;99.90;;;;;;5064065;28;20139;-75
2022/10/31 01:59:30;;;;;;;33.45;17.63;;;17.80;99.90;;;;;;5067195;28;20047;-75
2022/10/31 02:01:57;;;;;;;30.65;17.80;;;17.90;99.90;;;;;;5085812;28;20044;-74
2022/10/31 02:04:27;;;;;;;23.65;16.65;;;17.90;99.90;;;;;;5073649;28;21059;-74
2022/10/31 02:07:03;;;;;;;26.52;16.75;;;17.80;99.90;;;;;;5090923;28;20048;-75
2022/10/31 02:09:36;;;;;;;30.30;16.23;;;17.70;99.90;;;;;;5040261;28;20052;-74
2022/10/31 02:12:05;;;;;;;23.02;15.75;;;17.80;99.90;;;;;;5017219;28;20055;-76
2022/10/31 02:14:35;;;;;;;26.75;15.32;;;17.80;99.90;;;;;;5033187;28;20421;-74
2022/10/31 02:17:03;;;;;;;24.52;14.95;;;17.80;99.90;;;;;;5037704;28;20037;-75
2022/10/31 02:19:50;;;;;;;25.40;14.68;;;17.80;99.90;;;;;;5043679;28;20067;-74
2022/10/31 02:22:31;;;;;;;22.38;13.95;;;17.70;99.90;;;;;;5047067;28;20068;-74
2022/10/31 02:25:03;;;;;;;27.13;15.95;;;17.80;99.90;;;;;;5053500;28;20049;-75
2022/10/31 02:27:47;;;;;;;26.15;14.00;;;17.80;99.90;;;;;;5055946;28;20451;-75
2022/10/31 02:30:23;;;;;;;22.50;12.68;;;17.80;99.90;;;;;;5053795;28;20526;-74
2022/10/31 02:33:10;;;;;;;25.95;14.48;;;17.80;99.90;;;;;;5033070;28;20160;-75
2022/10/31 02:35:58;;;;;;;26.08;14.18;;;17.80;99.90;;;;;;5032821;28;20057;-75
2022/10/31 02:38:50;;;;;;;23.33;13.38;;;17.80;99.90;;;;;;5049996;28;20044;-76
2022/10/31 02:41:49;;;;;;;22.90;15.60;;;17.80;99.90;;;;;;5028519;28;20098;-75
2022/10/31 02:44:41;;;;;;;25.52;15.95;;;17.80;99.90;;;;;;5016704;28;20053;-75
2022/10/31 02:47:13;;;;;;;26.52;14.35;;;17.80;99.90;;;;;;5032826;28;20478;-76
2022/10/31 02:50:04;;;;;;;27.75;14.80;;;17.80;99.90;;;;;;5032515;28;20049;-76
2022/10/31 02:52:34;;;;;;;26.17;14.70;;;17.90;99.90;;;;;;5032827;28;20514;-75
2022/10/31 02:55:29;;;;;;;24.15;14.07;;;17.90;99.90;;;;;;5049050;28;20044;-74
2022/10/31 02:58:10;;;;;;;22.30;14.50;;;17.80;99.90;;;;;;5049008;28;20051;-74
2022/10/31 03:01:00;;;;;;;25.85;14.13;;;17.90;99.90;;;;;;5051615;28;20048;-74
2022/10/31 03:03:42;;;;;;;24.40;15.90;;;17.90;99.90;;;;;;5032627;28;20184;-75
2022/10/31 03:06:37;;;;;;;25.10;14.60;;;17.80;99.90;;;;;;5050196;28;20566;-75
2022/10/31 03:09:25;;;;;;;24.80;14.77;;;17.90;99.90;;;;;;5032316;28;20049;-75
2022/10/31 03:12:29;;;;;;;23.10;14.95;;;17.90;99.90;;;;;;5032448;28;20128;-74
2022/10/31 03:15:19;;;;;;;22.30;13.52;;;17.90;99.90;;;;;;5048828;28;20506;-75
2022/10/31 03:17:55;;;;;;;21.70;15.27;;;17.90;99.90;;;;;;5048712;28;20098;-75
2022/10/31 03:20:29;;;;;;;20.25;14.10;;;18.00;99.90;;;;;;5061363;28;20037;-75
2022/10/31 03:22:59;;;;;;;22.45;14.18;;;17.90;99.90;;;;;;5050031;28;20044;-75
2022/10/31 03:25:28;;;;;;;22.25;14.43;;;18.00;99.90;;;;;;5051310;28;20076;-74
2022/10/31 03:27:59;;;;;;;24.77;14.77;;;17.90;99.90;;;;;;5051393;28;20139;-75
2022/10/31 03:30:33;;;;;;;21.70;14.23;;;17.90;99.90;;;;;;5052192;28;20040;-75
2022/10/31 03:33:04;;;;;;;24.55;14.82;;;17.90;99.90;;;;;;5035698;28;20083;-74
2022/10/31 03:35:34;;;;;;;24.42;15.60;;;17.90;99.90;;;;;;5034908;28;20048;-74
2022/10/31 03:38:04;;;;;;;20.95;14.63;;;17.90;99.90;;;;;;5051785;28;20510;-75
2022/10/31 03:40:37;;;;;;;30.40;16.25;;;17.90;99.90;;;;;;5036012;28;20124;-76
2022/10/31 03:43:10;;;;;;;24.00;14.98;;;17.90;99.90;;;;;;5068622;28;20048;-75
2022/10/31 03:45:45;;;;;;;29.15;14.75;;;17.90;99.90;;;;;;5052112;28;20110;-74
2022/10/31 03:48:18;;;;;;;27.00;15.88;;;17.90;99.90;;;;;;5052049;28;20063;-76
2022/10/31 03:51:01;;;;;;;22.42;15.00;;;17.90;99.90;;;;;;5052376;28;20387;-75
2022/10/31 03:53:45;;;;;;;26.90;17.05;;;17.90;99.90;;;;;;5051772;28;20059;-74
2022/10/31 03:56:29;;;;;;;25.52;15.85;;;17.90;99.90;;;;;;5068147;28;20503;-74
2022/10/31 03:59:15;;;;;;;25.08;16.45;;;17.90;99.90;;;;;;5051227;28;20147;-74
2022/10/31 04:01:49;;;;;;;24.70;15.88;;;17.90;99.90;;;;;;5049846;28;20041;-76
2022/10/31 04:04:18;;;;;;;23.27;15.23;;;17.90;99.90;;;;;;5035998;28;20048;-76
2022/10/31 04:06:50;;;;;;;32.50;18.10;;;17.90;99.90;;;;;;5031528;28;20064;-75
2022/10/31 04:09:19;;;;;;;26.08;17.75;;;17.90;99.90;;;;;;5031156;28;20048;-75
2022/10/31 04:11:51;;;;;;;29.25;17.73;;;17.90;99.90;;;;;;5047787;28;20102;-76
2022/10/31 04:14:45;;;;;;;29.10;17.83;;;17.90;99.90;;;;;;5046094;28;20057;-75
2022/10/31 04:17:17;;;;;;;24.73;17.38;;;17.90;99.90;;;;;;5031050;28;20057;-75
2022/10/31 04:19:45;;;;;;;27.23;16.50;;;17.90;99.90;;;;;;5030704;28;20049;-75
2022/10/31 04:22:12;;;;;;;28.65;16.75;;;18.00;99.90;;;;;;5031519;28;20060;-75
2022/10/31 04:24:41;;;;;;;25.55;16.85;;;17.90;99.90;;;;;;5031452;28;20360;-74
2022/10/31 04:27:12;;;;;;;29.75;17.48;;;17.90;99.90;;;;;;5047938;28;20045;-74
2022/10/31 04:29:40;;;;;;;30.48;18.00;;;17.90;99.90;;;;;;5047854;28;20040;-74
2022/10/31 04:32:08;;;;;;;25.70;16.75;;;17.90;99.90;;;;;;5048113;28;20079;-75
2022/10/31 04:34:37;;;;;;;26.88;17.95;;;17.90;99.90;;;;;;5031253;28;20049;-75
2022/10/31 04:37:04;;;;;;;35.38;19.10;;;17.90;99.90;;;;;;5047160;28;20068;-75
2022/10/31 04:39:32;;;;;;;29.15;17.25;;;17.90;99.90;;;;;;5030795;28;20067;-74
2022/10/31 04:42:18;;;;;;;28.98;17.80;;;18.00;99.90;;;;;;5033457;28;20049;-74
2022/10/31 04:44:46;;;;;;;29.27;16.83;;;18.00;99.90;;;;;;5063706;28;20118;-75
2022/10/31 04:47:14;;;;;;;28.48;16.42;;;18.00;99.90;;;;;;5030213;28;20150;-74
2022/10/31 04:49:43;;;;;;;29.35;17.42;;;18.00;99.90;;;;;;5053256;28;20040;-75
2022/10/31 04:52:12;;;;;;;34.55;18.40;;;18.00;99.90;;;;;;5050946;28;20127;-74
2022/10/31 04:54:40;;;;;;;25.33;15.65;;;18.00;99.90;;;;;;5048363;28;20497;-76
2022/10/31 04:57:28;;;;;;;25.20;17.75;;;18.10;99.90;;;;;;5060372;28;20060;-75
2022/10/31 04:59:59;;;;;;;26.40;14.93;;;18.10;99.90;;;;;;5067339;28;20094;-75
2022/10/31 05:02:26;;;;;;;26.95;16.40;;;18.10;99.90;;;;;;5033390;28;20049;-74
2022/10/31 05:04:56;;;;;;;25.85;13.13;;;18.10;99.90;;;;;;5050614;28;20383;-75
2022/10/31 05:07:24;;;;;;;25.92;15.02;;;18.10;99.90;;;;;;5066959;28;20139;-75
2022/10/31 05:09:51;;;;;;;23.55;13.02;;;18.10;99.90;;;;;;5050149;28;20147;-74
2022/10/31 05:12:20;;;;;;;31.63;13.98;;;18.10;99.90;;;;;;5066739;28;20434;-75
2022/10/31 05:15:06;;;;;;;27.67;15.77;;;18.10;99.90;;;;;;5053120;28;20060;-74
2022/10/31 05:17:53;;;;;;;;;;;18.00;99.90;;;;;;5067139;28;20105;-75
2022/10/31 05:20:39;;;;;;;21.80;11.97;;;18.00;99.90;;;;;;5052435;28;19920;-74
2022/10/31 05:23:14;;;;;;;21.77;13.80;;;18.00;99.90;;;;;;5067052;28;20498;-76
2022/10/31 05:25:42;;;;;;;34.53;13.77;;;18.10;99.90;;;;;;5050235;28;20048;-75
2022/10/31 05:28:09;;;;;;;18.17;11.73;;;18.10;99.90;;;;;;5033287;28;20645;-75
2022/10/31 05:30:37;;;;;;;20.90;12.10;;;18.10;99.90;;;;;;5046053;28;20142;-75
2022/10/31 05:33:09;;;;;;;26.17;13.55;;;18.10;99.90;;;;;;5066843;28;20048;-75
2022/10/31 05:35:55;;;;;;;18.40;11.85;;;18.10;99.90;;;;;;5066677;28;20056;-75
2022/10/31 05:38:52;;;;;;;18.65;11.88;;;18.10;99.90;;;;;;5049082;28;20045;-75
2022/10/31 05:41:23;;;;;;;18.42;11.50;;;18.20;99.90;;;;;;5068082;28;20523;-75
2022/10/31 05:43:55;;;;;;;19.05;12.55;;;18.20;99.90;;;;;;5034057;28;20147;-74
2022/10/31 05:46:28;;;;;;;19.73;12.35;;;18.20;99.90;;;;;;5051394;28;20056;-74
2022/10/31 05:49:14;;;;;;;20.00;10.73;;;18.20;99.90;;;;;;5067729;28;20094;-76
2022/10/31 05:52:20;;;;;;;15.25;10.13;;;18.30;99.90;;;;;;5071299;28;20041;-74
2022/10/31 05:54:58;;;;;;;18.83;10.55;;;18.30;99.90;;;;;;5069115;28;20040;-74
2022/10/31 05:57:29;;;;;;;17.38;10.40;;;18.40;99.90;;;;;;5050035;28;20457;-74
2022/10/31 05:59:57;;;;;;;15.25;10.15;;;18.40;99.90;;;;;;5033449;28;20056;-75
2022/10/31 06:02:26;;;;;;;17.13;11.15;;;18.40;99.90;;;;;;5033591;28;20045;-74
2022/10/31 06:05:14;;;;;;;25.75;11.68;;;18.40;99.90;;;;;;5050273;28;20049;-74
2022/10/31 06:07:42;;;;;;;23.75;11.70;;;18.50;99.90;;;;;;5050158;28;20052;-74
2022/10/31 06:10:11;;;;;;;20.10;10.55;;;18.60;99.90;;;;;;5033262;28;20041;-74
2022/10/31 06:12:40;;;;;;;17.65;11.48;;;18.70;99.90;;;;;;5066706;28;20102;-74
2022/10/31 06:15:21;;;;;;;18.92;10.52;;;18.70;99.90;;;;;;5053492;28;20519;-74
2022/10/31 06:18:05;;;;;;;19.15;12.10;;;18.80;99.90;;;;;;5048266;28;20064;-75
2022/10/31 06:20:36;;;;;;;19.95;11.52;;;18.80;99.90;;;;;;5049792;28;20037;-75
2022/10/31 06:23:05;;;;;;;18.00;11.98;;;18.90;99.90;;;;;;5033603;28;20044;-74
2022/10/31 06:25:34;;;;;;;22.92;13.52;;;18.90;99.90;;;;;;5049666;28;20059;-76
2022/10/31 06:28:04;;;;;;;23.67;12.77;;;18.90;99.90;;;;;;5032942;28;20573;-74
2022/10/31 06:31:04;;;;;;;20.13;13.07;;;18.90;99.90;;;;;;5027291;28;20501;-74
2022/10/31 06:33:33;;;;;;;24.40;12.00;;;18.90;99.90;;;;;;5066221;28;20072;-74
2022/10/31 06:36:02;;;;;;;22.42;12.05;;;19.00;99.90;;;;;;5032581;28;20069;-76
2022/10/31 06:38:30;;;;;;;27.38;13.52;;;19.00;99.90;;;;;;5049467;28;20064;-74
2022/10/31 06:41:03;;;;;;;18.85;12.10;;;19.00;99.90;;;;;;5065880;28;20522;-75
2022/10/31 06:43:39;;;;;;;25.35;15.27;;;19.00;99.90;;;;;;5048422;28;20561;-74
2022/10/31 06:46:41;;;;;;;23.90;13.15;;;19.10;99.90;;;;;;5021602;28;20401;-74
2022/10/31 06:49:27;;;;;;;25.25;14.95;;;19.30;99.90;;;;;;5051833;28;20163;-74
2022/10/31 06:51:59;;;;;;;22.70;12.98;;;19.40;99.90;;;;;;5034009;28;20166;-75
2022/10/31 06:54:27;;;;;;;19.50;12.23;;;19.60;99.90;;;;;;5041222;28;20067;-75
2022/10/31 06:56:55;;;;;;;19.70;13.15;;;19.80;99.90;;;;;;5035944;28;20055;-75
2022/10/31 06:59:24;;;;;;;23.63;13.07;;;20.20;99.90;;;;;;5052946;28;20459;-75
2022/10/31 07:02:17;;;;;;;17.42;10.20;;;20.60;99.90;;;;;;5067867;28;20506;-74
2022/10/31 07:04:45;;;;;;;14.02;10.07;;;21.00;99.90;;;;;;5069135;28;20053;-73
2022/10/31 07:07:14;;;;;;;19.70;10.38;;;21.30;99.90;;;;;;5069108;28;20430;-74
2022/10/31 07:09:42;;;;;;;20.55;10.85;;;21.30;99.90;;;;;;5052296;28;20047;-74
2022/10/31 07:12:10;;;;;;;21.85;11.27;;;21.10;99.90;;;;;;5052427;28;20048;-74
2022/10/31 07:14:44;;;;;;;17.70;10.75;;;21.00;99.90;;;;;;5049995;28;20048;-75
2022/10/31 07:17:11;;;;;;;16.48;11.43;;;20.90;99.90;;;;;;5062275;28;20731;-74
2022/10/31 07:19:42;;;;;;;16.25;10.90;;;20.80;99.90;;;;;;5071079;28;20040;-75
2022/10/31 07:22:12;;;;;;;15.20;10.00;;;20.90;99.90;;;;;;5062682;28;20051;-74
2022/10/31 07:24:42;;;;;;;20.08;10.85;;;21.00;99.90;;;;;;5071395;28;20126;-73
2022/10/31 07:27:16;;;;;;;21.33;11.95;;;21.20;99.90;;;;;;5074180;28;20093;-74
2022/10/31 07:29:45;;;;;;;24.40;12.13;;;21.50;99.90;;;;;;5085520;28;20516;-73
2022/10/31 07:32:12;;;;;;;14.30;9.95;;;21.90;99.90;;;;;;5041807;28;20044;-73
2022/10/31 07:34:46;;;;;;;16.05;8.90;;;22.30;99.90;;;;;;5035521;28;20048;-74
2022/10/31 07:37:28;;;;;;;17.38;10.25;;;22.60;99.90;;;;;;5052288;28;20093;-74
2022/10/31 07:39:57;;;;;;;15.52;10.25;;;22.60;99.90;;;;;;5045600;28;20077;-74
2022/10/31 07:42:25;;;;;;;18.63;10.45;;;22.80;99.90;;;;;;5064752;28;20562;-73
2022/10/31 07:44:53;;;;;;;26.33;11.73;;;23.00;99.90;;;;;;5048987;28;20036;-73
2022/10/31 07:47:40;;;;;;;17.73;9.77;;;23.00;99.90;;;;;;5062010;28;20040;-74
2022/10/31 07:50:09;;;;;;;19.13;10.38;;;22.90;99.90;;;;;;5057125;28;20099;-73
2022/10/31 07:53:07;;;;;;;15.23;11.15;;;22.80;99.90;;;;;;5064028;28;20052;-73
2022/10/31 07:55:47;;;;;;;28.17;12.50;;;22.80;99.90;;;;;;5048185;28;20049;-74
2022/10/31 07:58:16;;;;;;;23.10;10.95;;;22.90;99.90;;;;;;5067066;28;20051;-74
2022/10/31 08:00:46;;;;;;;19.35;10.88;;;23.00;99.90;;;;;;5061263;28;20036;-75
2022/10/31 08:03:19;;;;;;;19.63;10.43;;;23.10;99.90;;;;;;5064930;28;20513;-75
2022/10/31 08:06:00;;;;;;;15.80;9.43;;;23.10;99.90;;;;;;5051021;28;20048;-73
2022/10/31 08:09:03;;;;;;;19.63;11.10;;;23.30;99.90;;;;;;5051936;28;20083;-74
2022/10/31 08:11:31;;;;;;;16.77;10.13;;;23.50;99.90;;;;;;5049595;28;20040;-74
2022/10/31 08:14:00;;;;;;;16.50;9.82;;;23.50;99.90;;;;;;5046708;28;20056;-74
2022/10/31 08:16:28;;;;;;;20.80;10.18;;;23.20;99.90;;;;;;5064532;28;20052;-75
2022/10/31 08:19:00;;;;;;;15.20;9.30;;;23.10;99.90;;;;;;5065996;28;20040;-75
2022/10/31 08:21:29;;;;;;;20.02;10.50;;;23.20;99.90;;;;;;5031765;28;20048;-74
2022/10/31 08:23:58;;;;;;;15.65;9.80;;;23.20;99.90;;;;;;5067085;28;20052;-75
2022/10/31 08:26:29;;;;;;;20.13;10.68;;;23.20;99.90;;;;;;5043192;28;20121;-73
2022/10/31 08:28:57;;;;;;;14.65;9.13;;;23.30;99.90;;;;;;5041693;28;20052;-73
2022/10/31 08:31:28;;;;;;;20.50;10.38;;;23.30;99.90;;;;;;5030778;28;20067;-73
2022/10/31 08:34:17;;;;;;;17.23;10.30;;;23.40;99.90;;;;;;5047836;28;20410;-73
2022/10/31 08:37:03;;;;;;;18.27;9.73;;;23.70;99.90;;;;;;5047471;28;20169;-73
2022/10/31 08:39:40;;;;;;;15.48;9.27;;;23.90;99.90;;;;;;5030350;28;20041;-73
2022/10/31 08:42:07;;;;;;;16.63;9.35;;;24.00;99.90;;;;;;5030326;28;20045;-73
2022/10/31 08:44:35;;;;;;;21.73;11.00;;;24.00;99.90;;;;;;5030560;28;20587;-74
2022/10/31 08:47:04;;;;;;;20.45;8.95;;;24.10;99.90;;;;;;5030940;28;20056;-73
2022/10/31 08:49:33;;;;;;;17.50;9.30;;;24.10;99.90;;;;;;5062272;28;20080;-74
2022/10/31 08:52:02;;;;;;;13.80;8.32;;;24.30;99.90;;;;;;5047617;28;20044;-72
2022/10/31 08:54:34;;;;;;;15.38;8.98;;;24.50;99.90;;;;;;5047956;28;20049;-72
2022/10/31 08:57:31;;;;;;;;;;;24.70;99.90;;;;;;5041915;28;20407;-75
2022/10/31 08:59:59;;;;;;;20.40;8.23;;;24.80;99.90;;;;;;5058264;28;20034;-73
2022/10/31 09:02:47;;;;;;;19.13;9.68;;;24.90;99.90;;;;;;5064033;28;20121;-72
2022/10/31 09:05:14;;;;;;;17.25;8.93;;;25.00;99.90;;;;;;5014487;28;20056;-74
2022/10/31 09:07:42;;;;;;;13.35;7.13;;;25.20;99.90;;;;;;5018886;28;20045;-76
2022/10/31 09:10:10;;;;;;;15.35;8.90;;;25.40;99.90;;;;;;5051526;28;20061;-75
2022/10/31 09:12:38;;;;;;;18.92;7.43;;;25.60;99.90;;;;;;5053055;28;20122;-73
2022/10/31 09:15:26;;;;;;;12.98;8.60;;;25.70;99.90;;;;;;5060071;28;20041;-73
2022/10/31 09:18:13;;;;;;;14.85;8.48;;;25.80;99.90;;;;;;5016878;28;20051;-73
2022/10/31 09:20:50;;;;;;;11.93;8.70;;;25.60;99.90;;;;;;5030781;28;20360;-74
2022/10/31 09:23:20;;;;;;;13.95;8.05;;;25.70;99.90;;;;;;5049966;28;20815;-73
2022/10/31 09:25:50;;;;;;;15.90;8.60;;;25.70;99.90;;;;;;5070090;28;20051;-73
2022/10/31 09:28:31;;;;;;;16.13;8.60;;;25.80;99.90;;;;;;5070978;28;20037;-70
2022/10/31 09:31:07;;;;;;;14.50;8.35;;;26.00;99.90;;;;;;5068554;28;20040;-71
2022/10/31 09:34:00;;;;;;;18.10;7.55;;;25.90;99.90;;;;;;5060497;28;20132;-71
2022/10/31 09:36:38;;;;;;;14.00;8.27;;;26.10;99.90;;;;;;5063961;28;20052;-71
2022/10/31 09:39:17;;;;;;;15.45;8.48;;;26.10;99.90;;;;;;5052931;28;20059;-71
2022/10/31 09:42:07;;;;;;;12.45;7.78;;;26.10;99.90;;;;;;5038129;28;20056;-73
2022/10/31 09:45:01;;;;;;;14.73;7.15;;;26.00;99.90;;;;;;5053641;28;20253;-70
2022/10/31 09:48:11;;;;;;;15.95;7.57;;;25.90;99.90;;;;;;5054907;28;20390;-71
2022/10/31 09:51:12;;;;;;;8.10;6.38;;;26.10;99.90;;;;;;5066479;28;20159;-70
2022/10/31 09:53:51;;;;;;;12.73;6.85;;;26.10;99.90;;;;;;5054375;28;20498;-71
2022/10/31 09:56:23;;;;;;;11.88;8.43;;;26.30;99.90;;;;;;5070299;28;20104;-71
2022/10/31 09:58:58;;;;;;;14.25;7.47;;;26.10;99.90;;;;;;5037454;28;20183;-71
2022/10/31 10:01:50;;;;;;;12.88;7.07;;;26.00;99.90;;;;;;5051652;28;20151;-72
2022/10/31 10:04:39;;;;;;;15.18;7.32;;;25.90;99.90;;;;;;5051838;28;20048;-73
2022/10/31 10:07:43;;;;;;;13.55;6.65;;;25.90;99.90;;;;;;5054220;28;20102;-71
2022/10/31 10:11:08;;;;;;;13.05;7.07;;;25.90;99.90;;;;;;5028757;28;20487;-70
2022/10/31 10:13:59;;;;;;;12.65;6.47;;;25.80;99.90;;;;;;5028425;28;20460;-71
2022/10/31 10:16:33;;;;;;;14.70;7.13;;;25.80;99.90;;;;;;5053463;28;20139;-70
2022/10/31 10:19:16;;;;;;;15.25;7.95;;;25.90;99.90;;;;;;5070067;28;20052;-71
2022/10/31 10:21:46;;;;;;;12.10;8.10;;;26.00;99.90;;;;;;5071058;28;20466;-74
2022/10/31 10:24:51;;;;;;;12.32;7.60;;;26.10;99.90;;;;;;5070974;28;20449;-71
2022/10/31 10:27:30;;;;;;;21.20;6.57;;;25.80;99.90;;;;;;5071205;28;20048;-73
2022/10/31 10:30:13;;;;;;;12.27;7.38;;;25.80;99.90;;;;;;5036673;28;20414;-71
2022/10/31 10:32:58;;;;;;;10.52;7.15;;;25.80;99.90;;;;;;5069839;28;20063;-71
2022/10/31 10:35:47;;;;;;;9.57;7.22;;;25.90;99.90;;;;;;5069359;28;20533;-70
2022/10/31 10:38:33;;;;;;;12.93;6.43;;;25.90;99.90;;;;;;5052529;28;20049;-71
2022/10/31 10:41:05;;;;;;;9.20;5.65;;;25.80;99.90;;;;;;5070795;28;20057;-72
2022/10/31 10:43:35;;;;;;;15.55;7.55;;;25.80;99.90;;;;;;5036660;28;20052;-71
2022/10/31 10:49:41;;;;;;;8.75;5.63;;;25.90;99.90;;;;;;5069240;28;20406;-72
2022/10/31 10:52:35;;;;;;;10.48;6.22;;;25.90;99.90;;;;;;5052815;28;20139;-72
2022/10/31 10:55:36;;;;;;;11.50;7.47;;;26.00;99.90;;;;;;5069455;28;20098;-72
2022/10/31 10:58:07;;;;;;;12.07;6.73;;;25.90;99.90;;;;;;5047397;28;20437;-73
2022/10/31 11:00:49;;;;;;;13.23;7.93;;;25.90;99.90;;;;;;5052798;28;20291;-71
2022/10/31 11:03:17;;;;;;;10.02;7.55;;;25.80;99.90;;;;;;5052415;28;20048;-70
2022/10/31 11:06:01;;;;;;;14.07;7.75;;;25.80;99.90;;;;;;5069985;28;20048;-72
2022/10/31 11:08:35;;;;;;;14.85;7.45;;;25.90;99.90;;;;;;5066115;28;20044;-71
2022/10/31 11:11:20;;;;;;;11.75;7.00;;;25.90;99.90;;;;;;5069306;28;20051;-72
2022/10/31 11:13:51;;;;;;;12.40;8.27;;;26.10;99.90;;;;;;5052160;28;20040;-72
2022/10/31 11:16:37;;;;;;;16.20;7.95;;;26.10;99.90;;;;;;5068736;28;20490;-72
2022/10/31 11:19:16;;;;;;;11.45;6.68;;;26.10;99.90;;;;;;5052704;28;20474;-71
2022/10/31 11:21:45;;;;;;;14.48;7.47;;;26.10;99.90;;;;;;5065085;28;20128;-71
2022/10/31 11:24:16;;;;;;;13.07;7.15;;;26.00;99.90;;;;;;5031811;28;20820;-72
2022/10/31 11:26:46;;;;;;;14.55;6.68;;;25.90;99.90;;;;;;5049901;28;20437;-72
2022/10/31 11:29:24;;;;;;;10.00;6.32;;;25.90;99.90;;;;;;5031752;28;20136;-71
2022/10/31 11:31:55;;;;;;;11.00;7.25;;;25.90;99.90;;;;;;5031892;28;20147;-71
2022/10/31 11:34:22;;;;;;;14.82;8.50;;;25.90;99.90;;;;;;5064961;28;20497;-71
2022/10/31 11:36:50;;;;;;;10.90;7.10;;;25.90;99.90;;;;;;5052131;28;20060;-71
2022/10/31 11:39:22;;;;;;;11.18;7.03;;;25.90;99.90;;;;;;5044774;28;20139;-71
2022/10/31 11:41:51;;;;;;;13.80;6.75;;;25.90;99.90;;;;;;5046919;28;20044;-72
2022/10/31 11:44:29;;;;;;;11.07;7.13;;;25.90;99.90;;;;;;5047981;28;20432;-72
2022/10/31 11:47:03;;;;;;;12.52;6.80;;;25.90;99.90;;;;;;5060153;28;20045;-72
2022/10/31 11:49:40;;;;;;;10.35;6.32;;;25.80;99.90;;;;;;5046166;28;20049;-71
2022/10/31 11:52:18;;;;;;;12.82;7.07;;;25.80;99.90;;;;;;5051507;28;20044;-72
2022/10/31 11:54:50;;;;;;;12.70;9.07;;;25.70;99.90;;;;;;5033227;28;20137;-71
2022/10/31 11:57:27;;;;;;;12.93;7.97;;;25.60;99.90;;;;;;5030975;28;20517;-74
2022/10/31 11:59:56;;;;;;;13.02;8.10;;;25.60;99.90;;;;;;5049619;28;20386;-72
2022/10/31 12:02:25;;;;;;;24.80;9.70;;;25.40;99.90;;;;;;5067458;28;20044;-73
2022/10/31 12:05:21;;;;;;;20.60;8.68;;;25.20;99.90;;;;;;5064293;28;20087;-72
2022/10/31 12:07:49;;;;;;;16.03;10.27;;;25.30;99.90;;;;;;5039058;28;20530;-70
2022/10/31 12:10:20;;;;;;;14.48;8.43;;;25.30;99.90;;;;;;5031190;28;20041;-73
2022/10/31 12:13:05;;;;;;;21.50;9.95;;;25.30;99.90;;;;;;5062579;28;20502;-73
2022/10/31 12:15:36;;;;;;;22.95;10.25;;;25.20;99.90;;;;;;5047845;28;20052;-71
2022/10/31 12:18:38;;;;;;;16.88;10.82;;;25.30;99.90;;;;;;5063361;28;20184;-71
2022/10/31 12:21:19;;;;;;;14.60;8.27;;;25.40;99.90;;;;;;5032623;28;20052;-71
2022/10/31 12:24:09;;;;;;;16.50;11.63;;;25.40;99.90;;;;;;5065991;28;20036;-72
2022/10/31 12:27:15;;;;;;;14.93;9.57;;;25.30;99.90;;;;;;5065140;28;20099;-72
2022/10/31 12:29:57;;;;;;;19.40;10.25;;;25.10;99.90;;;;;;5063876;28;20040;-73
2022/10/31 12:32:56;;;;;;;20.77;9.27;;;25.20;99.90;;;;;;5049635;28;20064;-73
2022/10/31 12:35:41;;;;;;;24.45;15.13;;;25.00;99.90;;;;;;5044705;28;20048;-72
2022/10/31 12:38:56;;;;;;;55.03;31.95;;;25.00;99.90;;;;;;5026443;28;20081;-72
2022/10/31 12:41:53;;;;;;;35.25;23.10;;;24.90;99.90;;;;;;4972595;28;20405;-71
2022/10/31 12:44:30;;;;;;;208.95;144.68;;;24.80;99.90;;;;;;4947430;28;20109;-73
2022/10/31 12:47:20;;;;;;;47.42;34.38;;;24.60;99.90;;;;;;4989040;28;20104;-73
2022/10/31 12:49:47;;;;;;;21.80;14.82;;;24.60;99.90;;;;;;5020616;28;20041;-71
2022/10/31 12:52:18;;;;;;;14.48;9.57;;;24.60;99.90;;;;;;5018241;28;20048;-72
2022/10/31 12:54:52;;;;;;;13.98;9.57;;;24.50;99.90;;;;;;5013934;28;20148;-71
2022/10/31 12:57:38;;;;;;;20.67;9.57;;;24.60;99.90;;;;;;5023520;28;20445;-73
2022/10/31 13:00:17;;;;;;;21.42;12.43;;;24.70;99.90;;;;;;5017782;28;20053;-72
2022/10/31 13:02:51;;;;;;;15.75;9.40;;;24.60;99.90;;;;;;5006793;28;20057;-72
2022/10/31 13:05:33;;;;;;;15.00;8.50;;;24.60;99.90;;;;;;5042264;28;20042;-72
2022/10/31 13:08:15;;;;;;;14.73;8.23;;;24.50;99.90;;;;;;4994704;28;20134;-72
2022/10/31 13:10:52;;;;;;;14.82;8.85;;;24.50;99.90;;;;;;5012403;28;20136;-73
2022/10/31 13:14:01;;;;;;;17.33;8.77;;;24.30;99.90;;;;;;4995015;28;20591;-73
2022/10/31 13:16:34;;;;;;;17.17;8.98;;;24.30;99.90;;;;;;5007327;28;20132;-72
2022/10/31 13:19:15;;;;;;;16.98;8.82;;;24.20;99.90;;;;;;5032982;28;20099;-72
2022/10/31 13:22:09;;;;;;;17.30;9.60;;;24.10;99.90;;;;;;5004174;28;20060;-72